IVAO kuvia

<< < (725/1631) > >>

3GM65D:
Quote

No eipä oo tullut PMDG:n versio ostoskoriin.


Kannattas hankkia ihan suosiolla. Ja hoitiko taas 'perämies' koko reissun? 

[/OFFTOPIC]

Pade:
Quote

Kannattas hankkia ihan suosiolla. Ja hoitiko taas 'perämies' koko reissun? 

[/OFFTOPIC]


Jaa-a, en tiiä vielä 

Joona:
Quote

Kannattas hankkia ihan suosiolla. Ja hoitiko taas 'perämies' koko reissun? 

[/OFFTOPIC]


Sulla tuntuu olevan joku ihmeellinen kiukuttelun ja piikittelyn tarve joka triidissä. Onko kenties murrosikä pahasti kesken vielä?

ALind:
Itse lähdin käymään VIR75 Orlandossa. Kohti Atlantin valtaverta painetaan menemään pinnalla 320. Pistän pari lisää myöhemmin, kun tätä konetta sentään viitsii katsoa tuon defaultin rinnalla (angst).

Lähdettiin jäätävän sumun ympäröimänä baanalta 23R aika täydellä lastilla, onneksi performanssilaskelmat pitivät. 
[ attachment removed ]

Mustang Sally! 
[ attachment removed ]

flykarppa:
FCM127P EFHK-EFPO VOR  RWY12 ja keli mainio EFPO 061050Z AUTO 13006KT 1700 -SN OVC014 M04/M05 Q0992 

[ attachment removed ]

jari

Navigation

Up one level

Next page

Previous page